createdAt,value
2022-07-25T00:00:29.399Z,5.80
2022-07-25T00:05:37.381Z,6.60
2022-07-25T00:10:44.551Z,7.00
2022-07-25T00:15:46.935Z,7.30
2022-07-25T00:20:49.189Z,6.60
2022-07-25T00:25:51.170Z,6.40
2022-07-25T00:30:53.108Z,6.20
2022-07-25T00:36:01.403Z,5.70
2022-07-25T00:41:03.945Z,5.70
2022-07-25T00:46:06.155Z,6.30
2022-07-25T00:51:11.064Z,6.90
2022-07-25T00:56:13.289Z,6.30
2022-07-25T01:01:15.763Z,6.40
2022-07-25T01:06:30.563Z,7.40
2022-07-25T01:11:33.157Z,6.10
2022-07-25T01:16:35.646Z,7.70
2022-07-25T01:21:44.489Z,7.00
2022-07-25T01:26:46.334Z,6.40
2022-07-25T01:31:48.377Z,6.80
2022-07-25T01:36:50.220Z,7.10
2022-07-25T01:41:52.305Z,6.30
2022-07-25T01:46:54.204Z,7.00
2022-07-25T01:51:56.197Z,7.40
2022-07-25T01:56:58.202Z,7.80
2022-07-25T02:02:01.095Z,7.00
2022-07-25T02:07:03.367Z,7.50
2022-07-25T02:12:07.532Z,7.40
2022-07-25T02:17:09.478Z,6.90
2022-07-25T02:22:11.623Z,7.50
2022-07-25T02:27:13.810Z,6.80
2022-07-25T02:32:16.097Z,7.50
2022-07-25T02:37:17.891Z,7.50
2022-07-25T02:42:19.853Z,7.10
2022-07-25T02:47:22.034Z,7.60
2022-07-25T02:52:23.957Z,7.10
2022-07-25T02:57:25.787Z,7.40
2022-07-25T03:02:32.684Z,7.50
2022-07-25T03:07:34.976Z,6.80
2022-07-25T03:12:36.950Z,6.90
2022-07-25T03:17:39.159Z,7.50
2022-07-25T03:22:41.627Z,7.70
2022-07-25T03:27:43.446Z,8.20
2022-07-25T03:32:45.386Z,7.60
2022-07-25T03:38:04.053Z,7.90
2022-07-25T03:43:17.398Z,6.80
2022-07-25T03:48:19.379Z,7.40
2022-07-25T03:53:21.358Z,8.00
2022-07-25T03:58:23.333Z,10.50
2022-07-25T04:03:38.929Z,7.40
2022-07-25T04:08:45.523Z,6.50
2022-07-25T04:13:47.502Z,6.50
2022-07-25T04:19:03.297Z,5.80
2022-07-25T04:24:08.622Z,6.70
2022-07-25T04:29:10.956Z,5.50
2022-07-25T04:34:13.239Z,6.90
2022-07-25T04:39:15.426Z,6.50
2022-07-25T04:44:17.711Z,5.80
2022-07-25T04:49:19.883Z,6.30
2022-07-25T04:54:26.891Z,5.60
2022-07-25T04:59:28.911Z,6.10
2022-07-25T05:04:30.852Z,6.20
2022-07-25T05:09:33.554Z,5.80
2022-07-25T05:14:35.527Z,5.60
2022-07-25T05:19:37.834Z,5.20
2022-07-25T05:24:40.001Z,5.60
2022-07-25T05:29:41.905Z,5.60
2022-07-25T05:34:44.066Z,5.60
2022-07-25T05:39:45.979Z,5.10
2022-07-25T05:44:47.817Z,5.20
2022-07-25T05:49:49.907Z,4.90
2022-07-25T05:54:52.268Z,5.80
2022-07-25T05:59:54.372Z,4.90
2022-07-25T06:04:56.460Z,5.10
2022-07-25T06:09:58.365Z,5.10
2022-07-25T06:15:00.924Z,5.40
2022-07-25T06:20:05.059Z,4.90
2022-07-25T06:25:16.964Z,4.90
2022-07-25T06:30:25.360Z,5.50
2022-07-25T06:35:27.500Z,4.30
2022-07-25T06:40:37.421Z,4.50
2022-07-25T06:45:39.433Z,4.40
2022-07-25T06:50:41.408Z,3.90
2022-07-25T06:55:43.386Z,4.70
2022-07-25T07:00:45.178Z,4.30
2022-07-25T07:05:47.859Z,7.30
2022-07-25T07:11:10.017Z,4.40
2022-07-25T07:16:12.263Z,3.70
2022-07-25T07:21:21.026Z,4.00
2022-07-25T07:26:37.997Z,3.50
2022-07-25T07:31:49.535Z,3.80
2022-07-25T07:36:52.342Z,3.60
2022-07-25T07:41:54.351Z,3.30
2022-07-25T07:46:56.366Z,2.80
2022-07-25T07:51:58.415Z,3.00
2022-07-25T07:57:00.292Z,2.50
2022-07-25T08:02:02.537Z,2.90
2022-07-25T08:07:04.663Z,2.00
2022-07-25T08:12:06.615Z,2.70
2022-07-25T08:17:08.744Z,2.00
2022-07-25T08:22:15.109Z,2.50
2022-07-25T08:27:16.986Z,2.70
2022-07-25T08:32:18.964Z,3.00
2022-07-25T08:37:20.949Z,2.60
2022-07-25T08:42:23.024Z,2.10
2022-07-25T08:47:25.034Z,2.30
2022-07-25T08:52:27.396Z,2.20
2022-07-25T08:57:29.297Z,2.70
2022-07-25T09:02:31.235Z,1.50
2022-07-25T09:07:34.661Z,1.50
2022-07-25T09:12:36.470Z,1.50
2022-07-25T09:17:49.789Z,2.00
2022-07-25T09:22:51.772Z,2.30
2022-07-25T09:27:53.741Z,2.20
2022-07-25T09:33:02.141Z,2.30
2022-07-25T09:38:11.596Z,2.10
2022-07-25T09:43:13.713Z,1.50
2022-07-25T09:48:15.900Z,2.00
2022-07-25T09:53:18.087Z,1.90
2022-07-25T09:58:27.870Z,2.10
2022-07-25T10:03:45.434Z,1.90
2022-07-25T10:08:48.495Z,2.00
2022-07-25T10:13:50.680Z,1.90
2022-07-25T10:18:53.715Z,2.30
2022-07-25T10:24:10.478Z,1.70
2022-07-25T10:29:14.136Z,2.00
2022-07-25T10:34:16.216Z,2.00
2022-07-25T10:39:19.724Z,2.30
2022-07-25T10:44:22.016Z,2.00
2022-07-25T10:49:32.233Z,1.60
2022-07-25T10:54:38.982Z,1.80
2022-07-25T10:59:41.163Z,1.90
2022-07-25T11:04:47.467Z,2.00
2022-07-25T11:09:59.776Z,2.00
2022-07-25T11:15:05.870Z,2.10
2022-07-25T11:20:09.308Z,2.30
2022-07-25T11:25:13.969Z,1.60
2022-07-25T11:30:19.363Z,2.00
2022-07-25T11:35:23.282Z,2.40
2022-07-25T11:40:30.596Z,1.70
2022-07-25T11:45:33.989Z,2.10
2022-07-25T11:50:37.417Z,2.00
2022-07-25T11:55:42.573Z,1.60
2022-07-25T12:00:49.238Z,2.00
2022-07-25T12:05:51.487Z,1.90
2022-07-25T12:10:55.798Z,1.80
2022-07-25T12:16:01.240Z,2.00
2022-07-25T12:21:03.225Z,2.30
2022-07-25T12:26:05.432Z,1.50
2022-07-25T12:31:07.526Z,1.40
2022-07-25T12:36:23.848Z,2.00
2022-07-25T12:41:40.325Z,2.10
2022-07-25T12:46:48.806Z,1.70
2022-07-25T12:51:54.728Z,2.00
2022-07-25T12:57:00.130Z,1.50
2022-07-25T13:02:02.360Z,1.50
2022-07-25T13:07:04.998Z,1.90
2022-07-25T13:12:07.367Z,2.20
2022-07-25T13:17:09.338Z,1.90
2022-07-25T13:22:11.170Z,2.00
2022-07-25T13:27:20.394Z,1.70
2022-07-25T13:32:23.168Z,1.70
2022-07-25T13:37:25.246Z,2.10
2022-07-25T13:42:27.224Z,1.60
2022-07-25T13:47:30.703Z,1.30
2022-07-25T13:52:33.032Z,1.50
2022-07-25T13:57:35.549Z,1.60
2022-07-25T14:02:37.980Z,1.80
2022-07-25T14:07:39.923Z,1.50
2022-07-25T14:12:55.029Z,1.60
2022-07-25T14:17:57.777Z,1.20
2022-07-25T14:23:20.062Z,1.40
2022-07-25T14:28:31.249Z,1.70
2022-07-25T14:33:38.024Z,1.50
2022-07-25T14:38:40.206Z,1.60
2022-07-25T14:43:42.594Z,1.50
2022-07-25T14:48:44.543Z,1.50
2022-07-25T14:53:51.275Z,1.30
2022-07-25T14:58:55.193Z,1.70
2022-07-25T15:03:57.375Z,1.30
2022-07-25T15:08:59.175Z,1.70
2022-07-25T15:14:01.126Z,1.40
2022-07-25T15:19:16.524Z,1.70
2022-07-25T15:24:19.527Z,1.90
2022-07-25T15:29:21.325Z,1.20
2022-07-25T15:34:23.278Z,1.70
2022-07-25T15:39:25.270Z,2.20
2022-07-25T15:44:27.242Z,2.00
2022-07-25T15:49:29.307Z,1.80
2022-07-25T15:54:31.334Z,1.50
2022-07-25T15:59:33.176Z,1.40
2022-07-25T16:04:34.958Z,2.20
2022-07-25T16:09:36.831Z,1.70
2022-07-25T16:14:38.633Z,1.60
2022-07-25T16:19:40.589Z,1.90
2022-07-25T16:38:38.690Z,2.10
2022-07-25T16:43:40.980Z,1.90
2022-07-25T16:48:43.233Z,2.00
2022-07-25T17:05:54.160Z,1.90
2022-07-25T17:10:55.517Z,2.10
2022-07-25T17:15:57.070Z,2.20
2022-07-25T17:20:59.479Z,2.60
2022-07-25T17:26:01.043Z,2.30
2022-07-25T17:31:02.591Z,2.20
2022-07-25T17:36:04.697Z,2.80
2022-07-25T17:41:06.376Z,2.40
2022-07-25T17:46:10.537Z,3.70
2022-07-25T17:56:13.064Z,3.60
2022-07-25T18:01:14.574Z,3.30
2022-07-25T18:06:16.576Z,3.50
2022-07-25T18:11:19.372Z,2.80
2022-07-25T18:16:20.875Z,3.80
2022-07-25T18:21:23.153Z,3.70
2022-07-25T18:26:25.554Z,3.80
2022-07-25T18:31:26.973Z,2.90
2022-07-25T18:36:29.177Z,2.90
2022-07-25T18:41:32.078Z,2.80
2022-07-25T18:46:33.791Z,3.10
2022-07-25T18:51:35.211Z,3.20
2022-07-25T18:56:36.789Z,4.10
2022-07-25T19:01:38.207Z,3.40
2022-07-25T19:06:39.749Z,4.30
2022-07-25T19:11:42.399Z,3.50
2022-07-25T19:16:44.353Z,3.50
2022-07-25T19:21:45.760Z,3.50
2022-07-25T19:26:48.763Z,4.20
2022-07-25T19:31:57.809Z,3.40
2022-07-25T19:37:00.607Z,3.30
2022-07-25T19:42:07.093Z,3.30
2022-07-25T19:47:11.831Z,4.40
2022-07-25T19:52:14.225Z,4.00
2022-07-25T19:57:15.627Z,4.30
2022-07-25T20:02:16.867Z,4.30
2022-07-25T20:07:18.405Z,4.70
2022-07-25T20:12:25.831Z,4.70
2022-07-25T20:17:27.299Z,4.10
2022-07-25T20:22:28.875Z,3.80
2022-07-25T20:27:30.340Z,4.10
2022-07-25T20:37:51.806Z,4.30
2022-07-25T20:42:55.038Z,4.30
2022-07-25T20:47:56.894Z,4.70
2022-07-25T20:53:01.540Z,3.70
2022-07-25T20:58:04.334Z,4.20
2022-07-25T21:03:13.486Z,4.20
2022-07-25T21:08:15.394Z,5.00
2022-07-25T21:13:18.467Z,4.20
2022-07-25T21:18:20.142Z,4.00
2022-07-25T21:23:25.908Z,4.10
2022-07-25T21:28:27.384Z,4.70
2022-07-25T21:33:29.050Z,4.70
2022-07-25T21:38:34.998Z,3.90
2022-07-25T21:43:36.700Z,4.20
2022-07-25T21:49:00.130Z,4.40
2022-07-25T21:54:01.482Z,4.40
2022-07-25T21:59:02.905Z,3.90
2022-07-25T22:04:04.688Z,4.40
2022-07-25T22:09:06.576Z,4.50
2022-07-25T22:14:08.741Z,4.00
2022-07-25T22:19:10.488Z,3.70
2022-07-25T22:24:12.076Z,4.50
2022-07-25T22:29:13.562Z,4.50
2022-07-25T22:34:15.017Z,4.30
2022-07-25T22:39:16.596Z,4.30
2022-07-25T22:44:18.070Z,4.40
2022-07-25T22:49:22.852Z,4.80
2022-07-25T22:54:24.453Z,3.90
2022-07-25T22:59:26.081Z,4.40
2022-07-25T23:04:28.100Z,4.30
2022-07-25T23:09:36.322Z,4.40
2022-07-25T23:14:38.442Z,4.60
2022-07-25T23:19:40.114Z,4.50
2022-07-25T23:24:41.690Z,4.60
2022-07-25T23:29:43.182Z,5.80
2022-07-25T23:34:50.544Z,11.10
2022-07-25T23:39:51.811Z,6.30
2022-07-25T23:44:53.292Z,5.20
2022-07-25T23:49:56.604Z,5.90
2022-07-25T23:54:58.068Z,5.10
2022-07-25T23:59:59.407Z,4.90
